Time;durP1;ratioP1;P1;durP2;ratioP2;P2;SDS_P1;SDS_P2;PMS_P1;PMS_P2;Temp;Humidity;BMP_temperature;BMP_pressure;BME280_temperature;BME280_humidity;BME280_pressure;Samples;Min_cycle;Max_cycle;Signal;HPM_P1;HPM_P2
2022/11/08 00:01:30;;;;;;;20.17;12.07;;;;;;;10.64;100.00;100870.06;5031876;28;20221;-62
2022/11/08 00:03:04;;;;;;;19.02;12.05;;;;;;;10.56;100.00;100869.66;5033963;28;20060;-62
2022/11/08 00:13:58;;;;;;;21.10;12.68;;;;;;;10.51;100.00;100877.22;5033838;28;20037;-62
2022/11/08 00:16:25;;;;;;;19.02;11.75;;;;;;;10.50;100.00;100875.56;5033569;28;20056;-61
2022/11/08 00:18:50;;;;;;;19.13;11.68;;;;;;;10.48;100.00;100875.09;5033359;28;20207;-63
2022/11/08 00:21:15;;;;;;;21.10;11.98;;;;;;;10.44;100.00;100867.38;5033366;28;20532;-62
2022/11/08 00:23:42;;;;;;;19.90;12.50;;;;;;;10.41;100.00;100879.06;5033457;28;20422;-62
2022/11/08 00:26:08;;;;;;;17.98;12.02;;;;;;;10.40;100.00;100876.59;5033662;28;20030;-62
2022/11/08 00:28:33;;;;;;;19.90;12.02;;;;;;;10.36;100.00;100870.81;5033360;28;20418;-62
2022/11/08 00:31:04;;;;;;;18.75;11.52;;;;;;;10.32;100.00;100872.56;5033417;28;20346;-62
2022/11/08 00:33:29;;;;;;;19.15;12.60;;;;;;;10.28;100.00;100864.03;5033508;28;20029;-61
2022/11/08 00:35:58;;;;;;;20.20;12.25;;;;;;;10.21;100.00;100865.56;5030847;28;20162;-63
2022/11/08 00:38:23;;;;;;;19.23;12.85;;;;;;;10.23;100.00;100864.16;5033371;28;20033;-62
2022/11/08 00:40:48;;;;;;;22.67;12.50;;;;;;;10.22;100.00;100867.19;5033513;28;20037;-62
2022/11/08 00:43:14;;;;;;;19.83;12.38;;;;;;;10.15;100.00;100859.31;5033248;28;20030;-62
2022/11/08 00:45:39;;;;;;;22.23;12.30;;;;;;;10.15;100.00;100859.31;5038965;28;20437;-62
2022/11/08 00:48:04;;;;;;;20.40;12.30;;;;;;;10.11;100.00;100856.31;5053863;28;20031;-63
2022/11/08 00:50:30;;;;;;;22.58;12.85;;;;;;;10.07;100.00;100854.47;5053961;28;20017;-61
2022/11/08 00:52:55;;;;;;;19.67;12.18;;;;;;;10.03;100.00;100858.97;5054111;28;20485;-61
2022/11/08 00:55:20;;;;;;;20.48;12.38;;;;;;;10.01;100.00;100852.91;5053741;28;20537;-61
2022/11/08 00:57:46;;;;;;;20.85;12.43;;;;;;;9.98;100.00;100846.06;5053520;28;20037;-61
2022/11/08 01:00:12;;;;;;;20.38;12.52;;;;;;;9.95;100.00;100846.66;5035081;28;20443;-62
2022/11/08 01:02:37;;;;;;;21.52;12.15;;;;;;;9.94;100.00;100847.75;5052903;28;20021;-61
2022/11/08 01:05:03;;;;;;;20.30;12.20;;;;;;;9.90;100.00;100846.75;5053011;28;20025;-62
2022/11/08 01:07:28;;;;;;;22.10;12.18;;;;;;;9.89;100.00;100854.19;5051889;28;20029;-62
2022/11/08 01:09:53;;;;;;;21.67;12.90;;;;;;;9.87;100.00;100848.16;5052479;28;20021;-61
2022/11/08 01:12:19;;;;;;;22.15;12.18;;;;;;;9.86;100.00;100852.06;5052833;28;20041;-62
2022/11/08 01:14:44;;;;;;;22.10;12.27;;;;;;;9.85;100.00;100842.13;5052380;28;20048;-62
2022/11/08 01:17:09;;;;;;;21.63;12.50;;;;;;;9.82;100.00;100839.94;5052675;28;20115;-61
2022/11/08 01:19:34;;;;;;;21.25;12.15;;;;;;;9.81;100.00;100844.66;5052441;28;20053;-62
2022/11/08 01:22:00;;;;;;;19.02;12.27;;;;;;;9.83;100.00;100847.94;5052418;28;20120;-62
2022/11/08 01:24:25;;;;;;;24.13;12.23;;;;;;;9.81;100.00;100839.16;5052571;28;20036;-62
2022/11/08 01:26:50;;;;;;;19.80;12.70;;;;;;;9.81;100.00;100844.66;5052226;28;20098;-61
2022/11/08 01:29:16;;;;;;;19.85;12.60;;;;;;;9.71;100.00;100832.94;5052688;28;20024;-61
2022/11/08 01:31:41;;;;;;;19.85;12.23;;;;;;;9.80;100.00;100840.25;5050923;28;20115;-63
2022/11/08 01:34:06;;;;;;;19.35;11.45;;;;;;;9.79;100.00;100826.72;5051579;28;20020;-61
2022/11/08 01:36:32;;;;;;;20.58;11.85;;;;;;;9.80;100.00;100829.22;5052184;28;20037;-60
2022/11/08 01:38:57;;;;;;;20.08;11.82;;;;;;;9.82;100.00;100826.94;5052245;28;20436;-61
2022/11/08 01:41:24;;;;;;;20.55;12.18;;;;;;;9.77;100.00;100809.66;5034004;28;20021;-61
2022/11/08 01:43:57;;;;;;;21.38;12.23;;;;;;;9.81;100.00;100817.03;5052374;28;20112;-62
2022/11/08 01:46:34;;;;;;;18.00;11.43;;;;;;;9.71;100.00;100808.09;5052570;28;20033;-61
2022/11/08 01:49:02;;;;;;;19.02;11.88;;;;;;;9.77;100.00;100804.94;5052403;28;20417;-62
2022/11/08 01:51:53;;;;;;;20.35;11.45;;;;;;;9.76;100.00;100808.00;5052376;28;20033;-62
2022/11/08 01:54:28;;;;;;;19.85;12.38;;;;;;;9.75;100.00;100807.19;5034363;28;20084;-62
2022/11/08 01:56:56;;;;;;;21.05;12.00;;;;;;;9.69;100.00;100791.81;5052249;28;20033;-62
2022/11/08 01:59:21;;;;;;;21.35;12.25;;;;;;;9.76;100.00;100800.53;5052180;28;20029;-63
2022/11/08 02:01:47;;;;;;;21.15;12.50;;;;;;;9.75;100.00;100790.59;5051899;28;20025;-62
2022/11/08 02:04:14;;;;;;;19.42;11.48;;;;;;;9.74;100.00;100780.66;5051735;28;20032;-62
2022/11/08 02:06:39;;;;;;;20.92;11.73;;;;;;;9.72;100.00;100782.94;5051603;28;20025;-62
2022/11/08 02:09:08;;;;;;;18.45;11.50;;;;;;;9.69;100.00;100772.47;5051228;28;20027;-62
2022/11/08 02:11:35;;;;;;;19.92;12.15;;;;;;;9.68;100.00;100779.13;5051340;28;20036;-62
2022/11/08 02:14:03;;;;;;;21.83;12.55;;;;;;;9.65;100.00;100766.75;5051114;28;20151;-62
2022/11/08 02:16:28;;;;;;;23.10;12.70;;;;;;;9.60;100.00;100757.72;5051311;28;20039;-63
2022/11/08 02:18:53;;;;;;;21.45;12.60;;;;;;;9.64;100.00;100767.03;5050458;28;20116;-63
2022/11/08 02:21:51;;;;;;;18.73;11.82;;;;;;;9.61;100.00;100762.94;5051505;28;20329;-61
2022/11/08 02:24:18;;;;;;;21.02;12.73;;;;;;;9.62;100.00;100755.47;5051477;28;20067;-62
2022/11/08 02:26:45;;;;;;;19.10;11.50;;;;;;;9.62;100.00;100752.72;5051196;28;20029;-61
2022/11/08 02:29:29;;;;;;;19.67;11.40;;;;;;;9.62;100.00;100741.69;5048903;28;20068;-61
2022/11/08 02:31:56;;;;;;;20.00;11.70;;;;;;;9.61;100.00;100749.13;5050883;28;20531;-62
2022/11/08 02:34:45;;;;;;;20.25;12.02;;;;;;;9.61;100.00;100746.34;5050836;28;20041;-61
2022/11/08 02:37:15;;;;;;;21.38;12.60;;;;;;;9.60;100.00;100741.94;5050951;28;20124;-63
2022/11/08 02:39:41;;;;;;;22.75;12.90;;;;;;;9.59;100.00;100745.03;5050838;28;20119;-63
2022/11/08 02:42:12;;;;;;;19.60;11.68;;;;;;;9.56;100.00;100743.69;5050900;28;20025;-62
2022/11/08 02:44:38;;;;;;;23.08;11.75;;;;;;;9.53;100.00;100738.75;5051013;28;20032;-62
2022/11/08 02:47:03;;;;;;;20.92;12.45;;;;;;;9.51;100.00;100730.78;5051164;28;20025;-62
2022/11/08 02:49:28;;;;;;;18.20;12.30;;;;;;;9.48;100.00;100731.38;5051198;28;20047;-62
2022/11/08 02:51:53;;;;;;;21.35;12.38;;;;;;;9.44;100.00;100727.59;5051126;28;20112;-63
2022/11/08 02:54:19;;;;;;;20.33;12.10;;;;;;;9.42;100.00;100721.56;5051150;28;20464;-62
2022/11/08 02:56:44;;;;;;;19.85;12.63;;;;;;;9.38;100.00;100717.75;5050819;28;20447;-62
2022/11/08 02:59:10;;;;;;;20.90;12.32;;;;;;;9.40;100.00;100709.19;5050786;28;20113;-61
2022/11/08 03:01:35;;;;;;;18.75;12.25;;;;;;;9.39;100.00;100707.53;5050708;28;20083;-62
2022/11/08 03:04:00;;;;;;;20.75;12.52;;;;;;;9.36;100.00;100715.28;5050603;28;20459;-61
2022/11/08 03:06:25;;;;;;;21.50;12.48;;;;;;;9.35;100.00;100710.09;5050522;28;20032;-61
2022/11/08 03:08:51;;;;;;;21.25;11.95;;;;;;;9.34;100.00;100702.91;5050406;28;20017;-61
2022/11/08 03:11:16;;;;;;;19.83;11.88;;;;;;;9.32;100.00;100700.44;5050609;28;20127;-63
2022/11/08 03:13:42;;;;;;;21.23;11.85;;;;;;;9.30;100.00;100696.34;5049765;28;20143;-61
2022/11/08 03:16:07;;;;;;;18.88;11.43;;;;;;;9.31;100.00;100692.47;5051133;28;20043;-62
2022/11/08 03:18:33;;;;;;;19.65;12.00;;;;;;;9.31;100.00;100692.47;5050315;28;20052;-59
2022/11/08 03:21:00;;;;;;;21.42;11.93;;;;;;;9.29;100.00;100678.97;5050168;28;20032;-62
2022/11/08 03:23:25;;;;;;;21.02;12.25;;;;;;;9.34;100.00;100680.84;5048824;28;20747;-62
2022/11/08 03:25:51;;;;;;;17.67;11.77;;;;;;;9.30;100.00;100672.34;5049171;28;20111;-62
2022/11/08 03:28:16;;;;;;;18.80;11.80;;;;;;;9.29;100.00;100672.63;5050416;28;20033;-62
2022/11/08 03:30:41;;;;;;;21.55;12.43;;;;;;;9.28;100.00;100660.78;5056131;28;20500;-61
2022/11/08 03:33:07;;;;;;;19.05;11.60;;;;;;;9.27;100.00;100655.53;5057208;28;20033;-61
2022/11/08 03:35:32;;;;;;;19.67;11.57;;;;;;;9.27;100.00;100659.13;5056945;28;20538;-61
2022/11/08 03:37:57;;;;;;;19.88;11.80;;;;;;;9.27;100.00;100659.13;5056869;28;20029;-61
2022/11/08 03:40:23;;;;;;;18.90;12.23;;;;;;;9.28;100.00;100655.25;5056968;28;20452;-61
2022/11/08 03:42:49;;;;;;;18.23;11.20;;;;;;;9.28;100.00;100646.97;5057179;28;20392;-61
2022/11/08 03:45:15;;;;;;;19.95;11.40;;;;;;;9.29;100.00;100647.78;5039013;28;20469;-61
2022/11/08 03:47:45;;;;;;;19.90;12.02;;;;;;;9.20;100.00;100625.59;5056863;28;20041;-61
2022/11/08 03:50:11;;;;;;;20.52;12.07;;;;;;;9.29;100.00;100634.81;5057013;28;20044;-62
2022/11/08 03:52:45;;;;;;;18.48;11.40;;;;;;;9.28;100.00;100624.06;5056898;28;20032;-61
2022/11/08 03:55:12;;;;;;;21.17;12.20;;;;;;;9.30;100.00;100614.38;5056916;28;20036;-61
2022/11/08 03:57:41;;;;;;;20.63;11.60;;;;;;;9.26;100.00;100610.56;5057009;28;20104;-62
2022/11/08 04:00:09;;;;;;;18.52;11.88;;;;;;;9.23;100.00;100602.88;5056439;28;20016;-62
2022/11/08 04:02:34;;;;;;;20.05;11.95;;;;;;;9.26;100.00;100604.25;5056503;28;20047;-62
2022/11/08 04:05:00;;;;;;;20.23;12.10;;;;;;;9.23;100.00;100600.13;5056648;28;20112;-63
2022/11/08 04:07:27;;;;;;;20.05;11.95;;;;;;;9.25;100.00;100586.84;5056799;28;20103;-61
2022/11/08 04:09:53;;;;;;;20.85;11.70;;;;;;;9.23;100.00;100591.84;5056391;28;20044;-60
2022/11/08 04:15:14;;;;;;;18.38;11.38;;;;;;;9.25;100.00;100581.31;5056819;28;20118;-60
2022/11/08 04:23:09;;;;;;;19.50;11.40;;;;;;;9.27;100.00;100558.94;5056602;28;20471;-60
2022/11/08 04:25:34;;;;;;;16.45;11.10;;;;;;;9.27;100.00;100561.69;5056646;28;20033;-61
2022/11/08 04:27:59;;;;;;;17.55;10.25;;;;;;;9.30;100.00;100569.38;5056283;28;20116;-61
2022/11/08 04:30:24;;;;;;;17.27;10.68;;;;;;;9.31;100.00;100563.53;5056347;28;20448;-61
2022/11/08 04:32:50;;;;;;;18.30;11.57;;;;;;;9.32;100.00;100562.41;5056183;28;20032;-61
2022/11/08 04:35:15;;;;;;;19.52;11.15;;;;;;;9.33;100.00;100561.28;5056297;28;20048;-61
2022/11/08 04:37:40;;;;;;;18.27;11.25;;;;;;;9.32;100.00;100547.81;5056000;28;20032;-61
2022/11/08 04:40:06;;;;;;;19.63;10.82;;;;;;;9.31;100.00;100551.69;5056278;28;20060;-60
2022/11/08 04:42:32;;;;;;;17.85;10.75;;;;;;;9.28;100.00;100538.47;5053455;28;20025;-61
2022/11/08 04:44:57;;;;;;;18.02;10.40;;;;;;;9.26;100.00;100536.03;5053673;28;20087;-62
2022/11/08 04:47:22;;;;;;;18.00;10.20;;;;;;;9.30;100.00;100534.31;5053355;28;20040;-62
2022/11/08 04:49:48;;;;;;;16.20;9.95;;;;;;;9.29;100.00;100529.91;5053100;28;20033;-62
2022/11/08 04:52:14;;;;;;;18.30;10.80;;;;;;;9.30;100.00;100541.75;5052866;28;20033;-62
2022/11/08 04:54:43;;;;;;;17.95;10.88;;;;;;;9.26;100.00;100536.03;5052837;28;20413;-61
2022/11/08 04:57:09;;;;;;;17.98;11.15;;;;;;;9.24;100.00;100523.66;5052966;28;20033;-62
2022/11/08 04:59:34;;;;;;;18.98;11.35;;;;;;;9.18;100.00;100523.75;5052850;28;20114;-62
2022/11/08 05:01:59;;;;;;;17.08;11.05;;;;;;;9.19;100.00;100511.59;5053170;28;20025;-62
2022/11/08 05:04:25;;;;;;;18.73;11.80;;;;;;;9.17;100.00;100511.06;5052906;28;20056;-61
2022/11/08 05:06:50;;;;;;;18.90;11.43;;;;;;;9.16;100.00;100503.91;5053093;28;20598;-62
2022/11/08 05:09:15;;;;;;;16.58;11.02;;;;;;;9.12;100.00;100499.31;5053108;28;20119;-62
2022/11/08 05:11:41;;;;;;;18.17;10.52;;;;;;;9.09;100.00;100503.50;5053207;28;20158;-63
2022/11/08 05:14:06;;;;;;;18.05;10.90;;;;;;;9.07;100.00;100499.41;5033586;28;20024;-64
2022/11/08 05:16:31;;;;;;;18.02;10.98;;;;;;;9.06;100.00;100501.38;5051141;28;20472;-62
2022/11/08 05:18:57;;;;;;;18.27;11.13;;;;;;;9.03;100.00;100493.69;5052437;28;20093;-62
2022/11/08 05:24:11;;;;;;;18.50;11.90;;;;;;;9.02;100.00;100490.09;5052559;28;20832;-61
2022/11/08 05:26:40;;;;;;;19.00;11.25;;;;;;;8.98;100.00;100486.31;5052377;28;20095;-62
2022/11/08 05:29:06;;;;;;;17.95;10.82;;;;;;;8.99;100.00;100499.00;5052018;28;20071;-62
2022/11/08 05:31:31;;;;;;;16.55;11.13;;;;;;;9.02;100.00;100489.28;5051954;28;20064;-62
2022/11/08 05:33:58;;;;;;;17.90;10.70;;;;;;;9.02;100.00;100492.06;5051826;28;20032;-61
2022/11/08 05:36:24;;;;;;;17.48;11.10;;;;;;;9.02;100.00;100486.53;5052147;28;20090;-62
2022/11/08 05:38:49;;;;;;;18.10;10.95;;;;;;;9.02;100.00;100490.09;5052157;28;20036;-62
2022/11/08 05:41:18;;;;;;;17.45;10.90;;;;;;;9.05;100.00;100483.16;5052030;28;20112;-62
2022/11/08 05:43:48;;;;;;;17.10;11.27;;;;;;;9.05;100.00;100478.47;5052399;28;20771;-62
2022/11/08 05:46:14;;;;;;;18.75;11.20;;;;;;;9.05;100.00;100474.91;5052342;28;20059;-62
2022/11/08 05:48:45;;;;;;;17.48;11.10;;;;;;;9.05;100.00;100477.66;5052230;28;20025;-62
2022/11/08 05:51:11;;;;;;;17.58;11.10;;;;;;;9.03;100.00;100464.16;5052415;28;20032;-62
2022/11/08 05:53:37;;;;;;;18.35;11.13;;;;;;;9.02;100.00;100481.00;5051524;28;20074;-62
2022/11/08 05:56:04;;;;;;;17.30;11.40;;;;;;;9.08;100.00;100473.47;5052130;28;20029;-61
2022/11/08 05:58:31;;;;;;;18.58;11.45;;;;;;;9.07;100.00;100478.16;5052051;28;20048;-63
2022/11/08 06:01:02;;;;;;;18.33;11.38;;;;;;;9.08;100.00;100478.97;5051951;28;20041;-62
2022/11/08 06:03:28;;;;;;;17.20;11.10;;;;;;;9.10;100.00;100483.06;5051897;28;20021;-63
2022/11/08 06:05:53;;;;;;;19.35;11.68;;;;;;;9.07;100.00;100480.91;5051948;28;20421;-61
2022/11/08 06:08:18;;;;;;;17.52;11.60;;;;;;;9.07;100.00;100480.09;5051826;28;20148;-62
2022/11/08 06:10:44;;;;;;;17.10;11.30;;;;;;;9.08;100.00;100478.97;5049729;28;20025;-62
2022/11/08 06:13:09;;;;;;;17.10;11.10;;;;;;;9.09;100.00;100464.06;5051726;28;20042;-62
2022/11/08 06:15:34;;;;;;;16.13;11.43;;;;;;;9.11;100.00;100475.63;5051550;28;20028;-62
2022/11/08 06:18:03;;;;;;;16.65;11.15;;;;;;;9.07;100.00;100469.88;5050969;28;20033;-62
2022/11/08 06:20:29;;;;;;;17.50;11.80;;;;;;;9.15;100.00;100468.34;5051109;28;20033;-62
2022/11/08 06:22:55;;;;;;;18.45;11.18;;;;;;;9.13;100.00;100467.81;5050625;28;20454;-60
2022/11/08 06:25:21;;;;;;;17.50;11.02;;;;;;;9.09;100.00;100462.09;5050853;28;20758;-61
2022/11/08 06:27:46;;;;;;;17.00;11.27;;;;;;;9.13;100.00;100465.91;5050377;28;20052;-61
2022/11/08 06:30:12;;;;;;;16.73;11.45;;;;;;;9.13;100.00;100470.59;5050410;28;20082;-61
2022/11/08 06:32:37;;;;;;;17.95;11.75;;;;;;;9.11;100.00;100470.91;5050586;28;20436;-60
2022/11/08 06:35:03;;;;;;;20.10;11.77;;;;;;;9.09;100.00;100472.34;5050691;28;20149;-61
2022/11/08 06:37:28;;;;;;;18.15;11.80;;;;;;;9.12;100.00;100463.44;5050569;28;20425;-61
2022/11/08 06:39:53;;;;;;;17.63;11.77;;;;;;;9.11;100.00;100478.38;5050416;28;20056;-61
2022/11/08 06:42:19;;;;;;;18.58;11.57;;;;;;;9.12;100.00;100474.47;5050449;28;20112;-60
2022/11/08 06:44:44;;;;;;;17.45;11.43;;;;;;;9.12;100.00;100480.81;5050120;28;20174;-62
2022/11/08 06:47:09;;;;;;;20.00;11.63;;;;;;;9.10;100.00;100471.22;5050236;28;20068;-63
2022/11/08 06:49:36;;;;;;;18.40;11.68;;;;;;;9.09;100.00;100473.16;5049863;28;20081;-61
2022/11/08 06:52:02;;;;;;;18.13;11.85;;;;;;;9.09;100.00;100473.16;5050076;28;20414;-61
2022/11/08 06:54:27;;;;;;;19.40;12.05;;;;;;;9.11;100.00;100475.63;5049816;28;20044;-61
2022/11/08 06:56:54;;;;;;;19.23;12.30;;;;;;;9.07;100.00;100467.09;5049849;28;20123;-62
2022/11/08 06:59:20;;;;;;;19.00;11.52;;;;;;;9.06;100.00;100459.97;5049987;28;20085;-62
2022/11/08 07:01:45;;;;;;;16.48;11.30;;;;;;;9.04;100.00;100468.53;5049717;28;20032;-62
2022/11/08 07:04:11;;;;;;;18.27;11.38;;;;;;;9.03;100.00;100463.34;5048782;28;20091;-62
2022/11/08 07:06:36;;;;;;;17.20;10.80;;;;;;;9.01;100.00;100468.34;5047866;28;20040;-61
2022/11/08 07:09:01;;;;;;;21.25;11.73;;;;;;;9.00;100.00;100466.69;5050010;28;20468;-61
2022/11/08 07:11:27;;;;;;;18.17;11.32;;;;;;;9.00;100.00;100474.97;5050186;28;20040;-62
2022/11/08 07:13:52;;;;;;;18.20;11.18;;;;;;;9.00;100.00;100470.28;5050767;28;20033;-61
2022/11/08 07:16:17;;;;;;;17.98;10.80;;;;;;;9.03;100.00;100488.97;5048583;28;20037;-60
2022/11/08 07:18:42;;;;;;;17.17;10.90;;;;;;;9.03;100.00;100479.91;5047831;28;20045;-61
2022/11/08 07:21:08;;;;;;;17.83;10.70;;;;;;;9.06;100.00;100490.34;5030328;28;20033;-62
2022/11/08 07:23:33;;;;;;;17.40;10.35;;;;;;;9.09;100.00;100484.19;5048239;28;20029;-61
2022/11/08 07:26:01;;;;;;;19.83;11.20;;;;;;;9.10;100.00;100485.03;5048277;28;20108;-61
2022/11/08 07:28:26;;;;;;;18.63;11.13;;;;;;;9.11;100.00;100486.66;5048342;28;20029;-61
2022/11/08 07:31:00;;;;;;;17.00;10.73;;;;;;;9.13;100.00;100476.09;5049174;28;20158;-62
2022/11/08 07:33:25;;;;;;;17.50;10.82;;;;;;;9.08;100.00;100465.19;5050797;28;20075;-61
2022/11/08 07:35:50;;;;;;;19.08;11.23;;;;;;;9.15;100.00;100477.47;5032445;28;20480;-61
2022/11/08 07:38:16;;;;;;;18.08;10.98;;;;;;;9.19;100.00;100472.94;5050695;28;20496;-61
2022/11/08 07:40:41;;;;;;;17.23;11.07;;;;;;;9.21;100.00;100469.88;5050766;28;20098;-59
2022/11/08 07:43:07;;;;;;;17.95;10.55;;;;;;;9.23;100.00;100475.09;5050590;28;20035;-60
2022/11/08 07:45:32;;;;;;;17.15;10.90;;;;;;;9.25;100.00;100473.66;5051117;28;20025;-60
2022/11/08 07:48:01;;;;;;;16.95;10.40;;;;;;;9.32;100.00;100476.84;5051215;28;20109;-60
2022/11/08 07:50:27;;;;;;;19.52;10.40;;;;;;;9.38;100.00;100461.00;5050629;28;20127;-61
2022/11/08 07:52:54;;;;;;;17.90;10.80;;;;;;;9.40;99.89;100469.78;5050253;28;20392;-61
2022/11/08 07:55:19;;;;;;;17.98;10.52;;;;;;;9.49;99.67;100467.13;5050882;28;20435;-61
2022/11/08 07:57:45;;;;;;;17.55;10.05;;;;;;;9.51;99.14;100468.47;5050844;28;20025;-57
2022/11/08 08:00:12;;;;;;;18.00;10.00;;;;;;;9.57;98.55;100468.34;5049472;28;20025;-62
2022/11/08 08:02:37;;;;;;;16.85;9.90;;;;;;;9.62;98.73;100463.53;5032170;28;20037;-62
2022/11/08 08:05:03;;;;;;;16.42;9.75;;;;;;;9.67;98.72;100473.66;5050329;28;20039;-63
2022/11/08 08:07:28;;;;;;;18.17;10.00;;;;;;;9.71;97.79;100469.16;5042098;28;20139;-63
2022/11/08 08:09:53;;;;;;;16.27;9.90;;;;;;;9.79;96.97;100470.34;5037862;28;20069;-62
2022/11/08 08:12:19;;;;;;;16.65;10.18;;;;;;;9.82;97.18;100470.53;5049288;28;20060;-64
2022/11/08 08:14:45;;;;;;;16.38;10.00;;;;;;;9.88;95.41;100465.72;5049414;28;20438;-63
2022/11/08 08:17:10;;;;;;;15.18;10.23;;;;;;;9.92;95.16;100460.41;5052572;28;20036;-62
2022/11/08 08:19:35;;;;;;;17.75;9.93;;;;;;;10.00;95.50;100473.50;5034820;28;20049;-62
2022/11/08 08:22:01;;;;;;;19.20;10.30;;;;;;;10.06;95.16;100474.19;5035224;28;20450;-61
2022/11/08 08:24:26;;;;;;;16.77;9.75;;;;;;;10.12;94.69;100464.63;5053497;28;20029;-61
2022/11/08 08:26:52;;;;;;;16.80;9.80;;;;;;;10.18;94.16;100459.81;5053239;28;20109;-62
2022/11/08 08:29:17;;;;;;;16.38;9.70;;;;;;;10.19;94.38;100466.97;5035516;28;20021;-60
2022/11/08 08:31:43;;;;;;;17.65;10.10;;;;;;;10.26;93.38;100470.13;5018677;28;20448;-62
2022/11/08 08:34:08;;;;;;;16.05;9.75;;;;;;;10.33;93.14;100489.03;5053286;28;20480;-62
2022/11/08 08:36:33;;;;;;;15.80;9.85;;;;;;;10.39;92.92;100485.03;5052877;28;20048;-61
2022/11/08 08:38:59;;;;;;;15.48;9.77;;;;;;;10.44;91.92;100484.91;5046623;28;20375;-61
2022/11/08 08:41:24;;;;;;;15.95;9.63;;;;;;;10.47;91.98;100483.47;5045088;28;20029;-61
2022/11/08 08:43:49;;;;;;;16.10;9.45;;;;;;;10.51;92.03;100495.53;5022656;28;20033;-62
2022/11/08 08:46:15;;;;;;;15.73;9.35;;;;;;;10.53;91.58;100498.81;5032364;28;20041;-62
2022/11/08 08:48:40;;;;;;;17.10;9.40;;;;;;;10.57;91.01;100500.63;5032728;28;20033;-62
2022/11/08 08:51:05;;;;;;;14.30;9.30;;;;;;;10.66;91.23;100488.81;5032866;28;20793;-61
2022/11/08 08:53:31;;;;;;;18.23;9.88;;;;;;;10.71;90.92;100483.16;5032855;28;20500;-62
2022/11/08 08:55:56;;;;;;;14.38;9.43;;;;;;;10.76;90.66;100489.38;5030468;28;20041;-62
2022/11/08 08:58:22;;;;;;;17.08;9.65;;;;;;;10.83;90.16;100488.09;5032798;28;20072;-63
2022/11/08 09:00:47;;;;;;;15.63;9.65;;;;;;;10.90;89.74;100460.78;5032559;28;20053;-62
2022/11/08 09:03:14;;;;;;;15.57;9.65;;;;;;;10.98;90.00;100459.22;5032310;28;20029;-62
2022/11/08 09:05:42;;;;;;;16.17;9.60;;;;;;;11.03;89.20;100470.97;5032361;28;20037;-62
2022/11/08 09:08:08;;;;;;;17.15;9.98;;;;;;;11.10;87.78;100469.69;5014673;28;20029;-61
2022/11/08 09:10:33;;;;;;;16.25;9.55;;;;;;;11.17;87.49;100461.72;5032167;28;20029;-61
2022/11/08 09:13:00;;;;;;;14.25;9.60;;;;;;;11.24;87.30;100459.31;5031769;28;20045;-61
2022/11/08 09:15:26;;;;;;;16.33;9.85;;;;;;;11.32;86.57;100453.00;5032312;28;20536;-60
2022/11/08 09:17:55;;;;;;;14.82;9.60;;;;;;;11.40;87.12;100445.84;5019689;28;20124;-62
2022/11/08 09:20:21;;;;;;;16.95;9.90;;;;;;;11.46;85.09;100444.56;5040316;28;20448;-61
2022/11/08 09:22:46;;;;;;;16.27;9.35;;;;;;;11.57;85.87;100447.03;5042946;28;20037;-61
2022/11/08 09:25:12;;;;;;;14.68;9.20;;;;;;;11.64;84.04;100450.94;5041168;28;20334;-61
2022/11/08 09:27:37;;;;;;;16.05;9.30;;;;;;;11.73;83.80;100466.75;5037868;28;20063;-62
2022/11/08 09:30:04;;;;;;;15.15;9.27;;;;;;;11.81;84.45;100460.41;5070112;28;20024;-62
2022/11/08 09:32:29;;;;;;;14.35;9.20;;;;;;;11.89;83.06;100453.25;5072134;28;20033;-61
2022/11/08 09:34:55;;;;;;;13.82;9.15;;;;;;;11.94;82.77;100447.56;5072069;28;20397;-62
2022/11/08 09:37:24;;;;;;;15.07;9.70;;;;;;;11.98;82.85;100445.78;5071636;28;20124;-61
2022/11/08 09:39:50;;;;;;;15.90;9.20;;;;;;;12.02;82.96;100452.34;5053603;28;20037;-62
2022/11/08 09:42:34;;;;;;;16.17;9.50;;;;;;;12.07;82.10;100457.69;5071434;28;20028;-61
2022/11/08 09:45:22;;;;;;;13.80;9.15;;;;;;;12.14;82.51;100468.31;5070826;28;20043;-60
2022/11/08 09:47:54;;;;;;;13.90;9.00;;;;;;;12.17;81.16;100459.34;5071191;28;20020;-63
2022/11/08 09:50:27;;;;;;;16.02;9.40;;;;;;;12.22;81.25;100439.75;5071088;28;20110;-62
2022/11/08 09:53:15;;;;;;;15.15;9.05;;;;;;;12.41;81.78;100456.06;5046599;28;20113;-62
2022/11/08 09:55:59;;;;;;;13.65;9.20;;;;;;;12.46;80.26;100446.75;5018520;28;20053;-62
2022/11/08 09:58:29;;;;;;;13.52;8.75;;;;;;;12.55;78.97;100450.34;5038823;28;20025;-62
2022/11/08 10:00:54;;;;;;;15.82;8.95;;;;;;;12.56;78.96;100463.06;5038132;28;20040;-61
2022/11/08 10:03:23;;;;;;;14.70;9.40;;;;;;;12.62;79.28;100475.63;5043125;28;20021;-61
2022/11/08 10:06:01;;;;;;;16.27;9.35;;;;;;;12.69;79.58;100474.28;5033565;28;20479;-61
2022/11/08 10:08:39;;;;;;;14.73;9.38;;;;;;;12.68;79.33;100464.34;5039359;28;20085;-61
2022/11/08 10:11:29;;;;;;;15.75;9.50;;;;;;;12.77;78.45;100465.13;5047356;28;20428;-62
2022/11/08 10:14:06;;;;;;;13.95;9.13;;;;;;;12.80;78.66;100464.47;5035620;28;20083;-62
2022/11/08 10:16:57;;;;;;;16.90;9.50;;;;;;;12.78;79.18;100456.50;5042116;28;20412;-62
2022/11/08 10:19:33;;;;;;;13.60;9.00;;;;;;;12.90;78.19;100474.41;5025506;28;20082;-62
2022/11/08 10:22:04;;;;;;;14.32;8.80;;;;;;;12.91;78.32;100457.44;5050098;28;20130;-60
2022/11/08 10:24:39;;;;;;;16.25;9.25;;;;;;;13.05;77.94;100460.00;5050949;28;20087;-60
2022/11/08 10:27:15;;;;;;;17.23;9.00;;;;;;;13.25;77.53;100471.50;5050487;28;20083;-61
2022/11/08 10:29:44;;;;;;;13.27;8.60;;;;;;;13.34;76.64;100474.25;5050600;28;20395;-62
2022/11/08 10:32:10;;;;;;;18.05;9.20;;;;;;;13.45;74.92;100477.50;5050901;28;20029;-60
2022/11/08 10:34:50;;;;;;;14.98;9.00;;;;;;;13.36;74.86;100463.59;5051304;28;20372;-61
2022/11/08 10:37:16;;;;;;;15.57;9.48;;;;;;;13.45;74.33;100467.19;5050761;28;20039;-61
2022/11/08 10:39:51;;;;;;;15.65;9.05;;;;;;;13.46;74.12;100476.34;5050689;28;20033;-62
2022/11/08 10:42:38;;;;;;;16.88;8.85;;;;;;;13.47;74.66;100480.75;5050746;28;20035;-61
2022/11/08 10:45:03;;;;;;;13.65;8.70;;;;;;;13.45;74.64;100481.09;5044006;28;20495;-63
2022/11/08 10:47:31;;;;;;;16.05;9.00;;;;;;;13.41;75.09;100475.38;5047790;28;20079;-62
2022/11/08 10:49:57;;;;;;;13.85;9.40;;;;;;;13.41;75.77;100478.16;5050855;28;20021;-61
2022/11/08 10:52:43;;;;;;;13.80;9.10;;;;;;;13.37;74.88;100471.59;5050641;28;20447;-60
2022/11/08 10:55:22;;;;;;;14.07;9.00;;;;;;;13.41;74.44;100478.16;5033323;28;20040;-61
2022/11/08 10:57:48;;;;;;;15.52;9.43;;;;;;;13.45;75.07;100483.06;5050293;28;20037;-62
2022/11/08 11:00:32;;;;;;;15.93;9.27;;;;;;;13.47;75.73;100473.22;5050171;28;20087;-61
2022/11/08 11:03:01;;;;;;;15.85;9.15;;;;;;;13.55;73.91;100472.38;5050138;28;20104;-61
2022/11/08 11:05:28;;;;;;;14.88;9.10;;;;;;;13.60;74.19;100465.00;5050300;28;20037;-61
2022/11/08 11:07:56;;;;;;;13.10;8.90;;;;;;;13.66;73.31;100464.44;5049966;28;20043;-62
2022/11/08 11:10:26;;;;;;;15.80;9.30;;;;;;;13.70;73.08;100467.38;5050012;28;20024;-61
2022/11/08 11:13:08;;;;;;;14.98;9.25;;;;;;;13.60;72.90;100440.00;5049836;28;20032;-61
2022/11/08 11:15:46;;;;;;;17.15;9.30;;;;;;;13.75;72.99;100460.78;5050213;28;20056;-61
2022/11/08 11:18:30;;;;;;;14.10;9.18;;;;;;;13.77;72.92;100444.59;5050293;28;20028;-61
2022/11/08 11:21:07;;;;;;;15.00;9.18;;;;;;;13.73;72.51;100442.50;5050671;28;20037;-61
2022/11/08 11:23:42;;;;;;;14.95;9.02;;;;;;;13.66;73.47;100419.97;5050440;28;20021;-62
2022/11/08 11:26:26;;;;;;;14.50;9.23;;;;;;;13.74;73.41;100426.63;5050426;28;20063;-60
2022/11/08 11:29:03;;;;;;;14.07;9.40;;;;;;;13.75;73.13;100424.66;5051034;28;20033;-61
2022/11/08 11:31:37;;;;;;;17.30;9.40;;;;;;;13.73;73.00;100419.44;5050884;28;20032;-61
2022/11/08 11:34:31;;;;;;;15.43;9.20;;;;;;;13.72;73.90;100420.59;5050493;28;20033;-62